• Join FlightAware (Why Join?)
  • Login
  • US Flag 
10:43PM EDT


 

Airport Tracker/Info


-or-


 

Live Flight TrackerFlight Track Log ✈ KAP927 ✈ 03-May-2013 ✈ KOGS - KALB

Flight Track Log - Related Links

Times and Time Zones

All times are in EDT time to prevent confusion due to time zone crossing. See the KAP927 flight status page for this flight to view local times or setup timezone preferences in your user account.

Time Position Orientation Groundspeed Altitude Reporting Facility
EDT Latitude Longitude Course Direction KTS MPH feet Rate Location/Type
05:02PM 44.5442 -75.3150 149° Southeast 155 178 4,400  Level Boston Center
05:03PM 44.5136 -75.2875 147° Southeast 155 178 5,000 600 Climbing Boston Center
05:04PM 44.4850 -75.2628 148° Southeast 141 162 5,600 600 Climbing Boston Center
05:05PM 44.4544 -75.2350 147° Southeast 134 154 6,300 720 Climbing Boston Center
05:06PM 44.4217 -75.2131 154° Southeast 134 154 7,100 660 Climbing Boston Center
05:07PM 44.3911 -75.1856 147° Southeast 134 154 7,700 600 Climbing Boston Center
05:08PM 44.4818 -75.2873 149° Southeast  Level Estimated
05:08PM 44.3583 -75.1581 149° Southeast 134 154 8,400  Level Boston Center
05:09PM 44.3278 -75.1306 147° Southeast 139 160 8,900 540 Climbing Boston Center
05:10PM 44.2911 -75.0997 149° Southeast 139 160 9,500 480 Climbing Boston Center
05:11PM 44.2542 -75.0692 149° Southeast 139 160 9,900 540 Climbing Boston Center
05:12PM 44.2217 -75.0386 146° Southeast 139 160 10,600 600 Climbing Boston Center
05:13PM 44.1889 -75.0083 146° Southeast 139 160 11,100 420 Climbing Boston Center
05:14PM 44.1542 -74.9778 148° Southeast 139 160 11,500 240 Climbing Boston Center
05:15PM 44.1153 -74.9444 148° Southeast 145 167 11,600  Climbing Boston Center
05:17PM 44.0764 -74.9111 148° Southeast 155 178 11,500  Descending Boston Center
05:18PM 44.0233 -74.8597 145° Southeast 161 185 11,600  Climbing Boston Center
05:19PM 43.9844 -74.8233 146° Southeast 166 191 11,500 -60 Descending Boston Center
05:20PM 43.9433 -74.7931 152° Southeast 166 191 11,500  Level Boston Center
05:21PM 43.9044 -74.7597 148° Southeast 166 191 11,500  Level Boston Center
05:22PM 43.8636 -74.7267 150° Southeast 166 191 11,500  Level Boston Center
05:23PM 43.8244 -74.6933 148° Southeast 166 191 11,500  Level Boston Center
05:24PM 43.7833 -74.6631 152° Southeast 166 191 11,500  Level Boston Center
05:25PM 43.7444 -74.6300 148° Southeast 166 191 11,500 -120 Level Boston Center
05:26PM 43.7033 -74.5997 152° Southeast 166 191 11,300 -360 Descending Boston Center
05:27PM 43.6583 -74.5639 150° Southeast 172 198 10,800 -480 Descending Boston Center
05:28PM 43.6150 -74.5308 151° Southeast 178 205 10,400 -480 Descending Boston Center
05:29PM 43.5719 -74.4947 149° Southeast 183 211 9,900 -540 Descending Boston Center
05:30PM 43.5311 -74.4533 144° Southeast 183 211 9,400 -420 Descending Boston Center
05:31PM 43.4900 -74.4119 144° Southeast 183 211 9,100 -480 Descending Boston Center
05:32PM 43.4489 -74.3733 146° Southeast 183 211 8,500 -480 Descending Boston Center
05:33PM 43.3997 -74.3317 148° Southeast 180 207 8,100 -360 Descending Boston Center
05:34PM 43.3606 -74.3019 151° Southeast 183 211 7,800 -420 Descending Boston Center
05:35PM 43.3236 -74.2722 150° Southeast 177 204 7,400 -360 Descending Boston Center
05:36PM 43.2783 -74.2367 150° Southeast 177 204 7,100 -420 Descending Boston Center
05:36PM 43.2658 -74.2308 161° South 171 197 6,900 -540 Descending Boston Center
05:37PM 43.2411 -74.2072 145° Southeast 177 204 6,600 -540 Descending Boston Center
05:37PM 43.2267 -74.2011 163° South 169 194 6,400 -420 Descending Boston Center
05:38PM 43.1981 -74.1717 143° Southeast 177 204 6,200 -420 Descending Boston Center
05:38PM 43.1856 -74.1656 160° South 169 194 6,000 -420 Descending Boston Center
05:39PM 43.1631 -74.1394 140° Southeast 177 204 5,800 -540 Descending Boston Center
05:39PM 43.1444 -74.1219 146° Southeast 169 194 5,500 -540 Descending Boston Center
05:40PM 43.1197 -74.1014 149° Southeast 172 198 5,300 -360 Descending Boston Center
05:40PM 43.1117 -74.0953 151° Southeast 169 194 5,200 -420 Descending Boston Center
05:41PM 43.0706 -74.0572 146° Southeast 166 191 4,800 -420 Descending Boston Center
05:42PM 43.0333 -74.0194 143° Southeast 166 191 4,400 -420 Descending Boston Center
05:43PM 43.0067 -73.9961 147° Southeast 167 192 4,100 -420 Descending Boston Center
05:43PM 42.9922 -73.9842 149° Southeast 169 194 4,000 -540 Descending Boston Center
05:44PM 42.9656 -73.9581 144° Southeast 167 192 3,600 -540 Descending Boston Center
05:44PM 42.9553 -73.9494 148° Southeast 170 196 3,500 -300 Descending Boston Center
05:45PM 42.9306 -73.9261 145° Southeast 162 186 3,300 -240 Descending Boston Center
05:45PM 42.9161 -73.9172 156° South 161 185 3,300 -240 Level Boston Center
05:46PM 42.8914 -73.8911 142° Southeast 162 186 3,100 -420 Descending Boston Center
05:46PM 42.8789 -73.8794 146° Southeast 159 183 2,900 -420 Descending Boston Center
05:47PM 42.8564 -73.8592 147° Southeast 162 186 2,700 -600 Descending Boston Center
05:47PM 42.8419 -73.8444 143° Southeast 172 198 2,300 -720 Descending Boston Center
05:48PM 42.8008 -73.8039 144° Southeast 165 190 1,800 -600 Descending Boston Center
05:49PM 42.7678 -73.7750 147° Southeast 136 157 1,100 -720 Descending Boston Center